createdAt,value
2023-04-16T00:01:51.490Z,100471.66
2023-04-16T00:04:19.514Z,100468.06
2023-04-16T00:06:47.367Z,100461.59
2023-04-16T00:09:14.912Z,100465.63
2023-04-16T00:11:42.369Z,100465.66
2023-04-16T00:14:10.067Z,100472.75
2023-04-16T00:16:38.704Z,100475.69
2023-04-16T00:19:06.603Z,100474.63
2023-04-16T00:21:34.429Z,100474.28
2023-04-16T00:24:01.760Z,100474.28
2023-04-16T00:26:29.149Z,100468.31
2023-04-16T00:28:57.606Z,100464.81
2023-04-16T00:31:29.126Z,100471.88
2023-04-16T00:33:56.994Z,100469.59
2023-04-16T00:36:24.700Z,100473.06
2023-04-16T00:38:52.400Z,100478.22
2023-04-16T00:41:20.145Z,100472.56
2023-04-16T00:43:47.456Z,100476.91
2023-04-16T00:46:16.780Z,100477.56
2023-04-16T00:48:45.482Z,100477.56
2023-04-16T00:51:13.309Z,100483.28
2023-04-16T00:53:41.428Z,100479.91
2023-04-16T00:56:10.063Z,100481.31
2023-04-16T00:58:37.358Z,100476.81
2023-04-16T01:01:05.724Z,100473.06
2023-04-16T01:03:43.809Z,100475.41
2023-04-16T01:06:11.943Z,100478.13
2023-04-16T01:08:40.227Z,100481.50
2023-04-16T01:11:08.260Z,100481.16
2023-04-16T01:13:39.300Z,100484.41
2023-04-16T01:16:08.408Z,100477.88
2023-04-16T01:18:36.728Z,100479.47
2023-04-16T01:21:04.368Z,100475.81
2023-04-16T01:23:32.572Z,100478.00
2023-04-16T01:26:00.305Z,100475.22
2023-04-16T01:28:28.436Z,100477.84
2023-04-16T01:30:55.800Z,100471.97
2023-04-16T01:33:36.576Z,100473.00
2023-04-16T01:36:04.245Z,100477.41
2023-04-16T01:38:32.040Z,100476.50
2023-04-16T01:40:59.714Z,100480.25
2023-04-16T01:43:27.419Z,100479.09
2023-04-16T01:46:00.256Z,100484.22
2023-04-16T01:48:28.373Z,100484.78
2023-04-16T01:50:56.347Z,100491.50
2023-04-16T01:53:24.118Z,100482.41
2023-04-16T01:55:52.016Z,100485.22
2023-04-16T01:58:19.462Z,100478.41
2023-04-16T02:00:47.415Z,100480.72
2023-04-16T02:03:17.749Z,100480.72
2023-04-16T02:05:45.836Z,100486.59
2023-04-16T02:08:13.144Z,100490.16
2023-04-16T02:10:40.509Z,100493.09
2023-04-16T02:13:09.019Z,100498.97
2023-04-16T02:15:36.487Z,100495.50
2023-04-16T02:18:04.346Z,100492.75
2023-04-16T02:20:31.999Z,100492.16
2023-04-16T02:23:00.870Z,100491.72
2023-04-16T02:25:29.667Z,100491.81
2023-04-16T02:27:58.454Z,100490.88
2023-04-16T02:30:38.220Z,100491.31
2023-04-16T02:33:07.544Z,100487.94
2023-04-16T02:35:37.729Z,100490.78
2023-04-16T02:38:05.693Z,100488.53
2023-04-16T02:40:33.280Z,100497.75
2023-04-16T02:43:01.458Z,100499.75
2023-04-16T02:45:28.834Z,100504.63
2023-04-16T02:47:57.213Z,100508.59
2023-04-16T02:50:24.721Z,100501.88
2023-04-16T02:52:52.635Z,100502.41
2023-04-16T02:55:19.996Z,100504.63
2023-04-16T02:57:47.489Z,100502.22
2023-04-16T03:00:14.894Z,100504.63
2023-04-16T03:02:42.790Z,100508.38
2023-04-16T03:05:12.403Z,100509.03
2023-04-16T03:07:40.898Z,100519.81
2023-04-16T03:10:09.464Z,100524.94
2023-04-16T03:12:36.760Z,100525.19
2023-04-16T03:15:08.462Z,100531.88
2023-04-16T03:17:36.423Z,100534.69
2023-04-16T03:20:05.037Z,100524.94
2023-04-16T03:22:32.314Z,100528.00
2023-04-16T03:24:59.722Z,100532.84
2023-04-16T03:27:27.044Z,100529.53
2023-04-16T03:29:54.967Z,100531.13
2023-04-16T03:32:23.332Z,100536.59
2023-04-16T03:34:50.898Z,100538.88
2023-04-16T03:37:19.326Z,100543.94
2023-04-16T03:39:47.056Z,100552.81
2023-04-16T03:42:14.414Z,100551.28
2023-04-16T03:44:42.317Z,100549.53
2023-04-16T03:47:09.927Z,100551.94
2023-04-16T03:49:37.333Z,100560.31
2023-04-16T03:52:04.904Z,100556.13
2023-04-16T03:54:32.294Z,100557.81
2023-04-16T03:57:11.256Z,100561.97
2023-04-16T03:59:39.487Z,100550.09
2023-04-16T04:02:07.058Z,100561.00
2023-04-16T04:04:35.080Z,100561.53
2023-04-16T04:07:03.421Z,100562.59
2023-04-16T04:09:31.521Z,100568.66
2023-04-16T04:11:59.373Z,100565.91
2023-04-16T04:14:27.631Z,100563.53
2023-04-16T04:16:54.877Z,100569.81
2023-04-16T04:19:22.457Z,100572.00
2023-04-16T04:21:50.219Z,100573.75
2023-04-16T04:24:18.996Z,100573.34
2023-04-16T04:26:46.398Z,100571.66
2023-04-16T04:29:14.586Z,100571.63
2023-04-16T04:31:42.355Z,100565.03
2023-04-16T04:34:09.810Z,100574.44
2023-04-16T04:36:37.571Z,100579.47
2023-04-16T04:39:04.888Z,100585.34
2023-04-16T04:41:32.802Z,100588.22
2023-04-16T04:44:00.186Z,100594.78
2023-04-16T04:46:27.998Z,100597.81
2023-04-16T04:48:55.428Z,100597.34
2023-04-16T04:51:22.878Z,100599.28
2023-04-16T04:53:50.165Z,100601.97
2023-04-16T04:56:17.409Z,100605.91
2023-04-16T04:58:45.282Z,100602.16
2023-04-16T05:01:13.242Z,100603.44
2023-04-16T05:03:41.459Z,100608.28
2023-04-16T05:06:08.959Z,100610.56
2023-04-16T05:08:36.658Z,100614.66
2023-04-16T05:11:03.950Z,100613.00
2023-04-16T05:13:31.300Z,100618.38
2023-04-16T05:15:58.670Z,100625.22
2023-04-16T05:18:26.014Z,100631.16
2023-04-16T05:20:54.055Z,100635.19
2023-04-16T05:23:21.617Z,100640.41
2023-04-16T05:25:48.934Z,100636.56
2023-04-16T05:28:16.441Z,100638.13
2023-04-16T05:30:43.688Z,100635.94
2023-04-16T05:33:11.362Z,100641.19
2023-04-16T05:35:38.686Z,100641.78
2023-04-16T05:38:05.967Z,100644.19
2023-04-16T05:40:33.289Z,100649.38
2023-04-16T05:43:00.809Z,100659.16
2023-04-16T05:45:28.565Z,100662.03
2023-04-16T05:47:55.981Z,100662.63
2023-04-16T05:50:23.311Z,100666.59
2023-04-16T05:52:51.047Z,100683.88
2023-04-16T05:55:19.013Z,100681.28
2023-04-16T05:57:46.563Z,100691.09
2023-04-16T06:00:14.382Z,100687.06
2023-04-16T06:02:42.008Z,100691.16
2023-04-16T06:05:10.240Z,100682.75
2023-04-16T06:07:37.584Z,100682.88
2023-04-16T06:10:05.110Z,100684.59
2023-04-16T06:12:32.353Z,100690.47
2023-04-16T06:15:00.223Z,100686.19
2023-04-16T06:17:28.204Z,100683.28
2023-04-16T06:19:55.603Z,100687.56
2023-04-16T06:22:23.004Z,100689.31
2023-04-16T06:24:50.998Z,100685.19
2023-04-16T06:27:18.325Z,100685.38
2023-04-16T06:29:45.689Z,100684.97
2023-04-16T06:32:12.989Z,100691.94
2023-04-16T06:34:40.736Z,100696.84
2023-04-16T06:37:10.533Z,100693.81
2023-04-16T06:39:38.138Z,100692.84
2023-04-16T06:42:05.545Z,100690.25
2023-04-16T06:44:32.853Z,100693.97
2023-04-16T06:47:00.186Z,100699.28
2023-04-16T06:49:27.527Z,100701.47
2023-04-16T06:51:55.296Z,100707.88
2023-04-16T06:54:22.619Z,100705.91
2023-04-16T06:56:49.855Z,100706.69
2023-04-16T06:59:17.289Z,100700.44
2023-04-16T07:01:45.192Z,100702.91
2023-04-16T07:04:12.540Z,100704.13
2023-04-16T07:06:40.728Z,100699.50
2023-04-16T07:09:08.668Z,100697.28
2023-04-16T07:11:36.329Z,100706.19
2023-04-16T07:14:04.186Z,100701.13
2023-04-16T07:16:31.627Z,100705.63
2023-04-16T07:18:59.413Z,100707.63
2023-04-16T07:21:26.748Z,100704.00
2023-04-16T07:23:54.088Z,100704.28
2023-04-16T07:26:21.437Z,100705.03
2023-04-16T07:28:49.103Z,100699.94
2023-04-16T07:31:17.485Z,100705.03
2023-04-16T07:33:44.874Z,100705.44
2023-04-16T07:36:12.495Z,100705.44
2023-04-16T07:38:40.160Z,100710.81
2023-04-16T07:41:08.506Z,100699.91
2023-04-16T07:43:35.966Z,100707.38
2023-04-16T07:46:03.286Z,100705.47
2023-04-16T07:48:31.085Z,100717.72
2023-04-16T07:50:59.098Z,100708.78
2023-04-16T07:53:26.347Z,100709.97
2023-04-16T07:55:53.601Z,100713.03
2023-04-16T07:58:21.700Z,100719.03
2023-04-16T08:00:50.977Z,100725.38
2023-04-16T08:03:18.677Z,100729.88
2023-04-16T08:05:46.096Z,100714.34
2023-04-16T08:08:13.872Z,100726.16
2023-04-16T08:10:41.766Z,100726.97
2023-04-16T08:13:09.965Z,100720.38
2023-04-16T08:15:37.744Z,100717.88
2023-04-16T08:18:07.170Z,100715.84
2023-04-16T08:20:34.579Z,100714.78
2023-04-16T08:23:02.303Z,100724.19
2023-04-16T08:25:29.997Z,100725.38
2023-04-16T08:27:57.561Z,100720.47
2023-04-16T08:30:25.498Z,100713.41
2023-04-16T08:32:53.275Z,100723.22
2023-04-16T08:35:20.710Z,100718.00
2023-04-16T08:37:48.394Z,100726.06
2023-04-16T08:40:15.954Z,100728.66
2023-04-16T08:42:51.205Z,100727.97
2023-04-16T08:45:18.984Z,100731.81
2023-04-16T08:47:47.400Z,100729.41
2023-04-16T08:50:15.635Z,100732.59
2023-04-16T08:52:50.510Z,100738.56
2023-04-16T08:55:19.398Z,100733.63
2023-04-16T08:57:48.559Z,100732.22
2023-04-16T09:00:16.549Z,100741.72
2023-04-16T09:02:44.607Z,100735.06
2023-04-16T09:05:17.083Z,100735.16
2023-04-16T09:07:48.159Z,100743.88
2023-04-16T09:10:16.677Z,100741.66
2023-04-16T09:12:45.158Z,100739.97
2023-04-16T09:15:13.293Z,100736.47
2023-04-16T09:17:41.204Z,100733.69
2023-04-16T09:20:09.082Z,100735.00
2023-04-16T09:22:37.446Z,100736.75
2023-04-16T09:25:04.914Z,100737.59
2023-04-16T09:27:32.713Z,100740.63
2023-04-16T09:30:00.997Z,100740.78
2023-04-16T09:32:28.786Z,100740.91
2023-04-16T09:35:02.299Z,100746.38
2023-04-16T09:37:30.664Z,100753.94
2023-04-16T09:39:59.775Z,100732.91
2023-04-16T09:42:28.840Z,100732.50
2023-04-16T09:44:59.343Z,100729.47
2023-04-16T09:47:38.857Z,100736.50
2023-04-16T09:50:06.646Z,100734.66
2023-04-16T09:52:37.971Z,100730.09
2023-04-16T09:55:06.057Z,100727.81
2023-04-16T09:57:33.404Z,100733.13
2023-04-16T10:00:08.964Z,100730.63
2023-04-16T10:02:41.809Z,100730.91
2023-04-16T10:05:10.057Z,100721.84
2023-04-16T10:07:37.988Z,100721.91
2023-04-16T10:10:06.208Z,100719.94
2023-04-16T10:12:33.826Z,100717.81
2023-04-16T10:15:01.780Z,100712.41
2023-04-16T10:17:30.469Z,100706.59
2023-04-16T10:19:58.476Z,100718.75
2023-04-16T10:22:26.696Z,100707.34
2023-04-16T10:24:55.272Z,100705.63
2023-04-16T10:27:22.722Z,100719.63
2023-04-16T10:29:50.731Z,100713.97
2023-04-16T10:32:21.861Z,100717.47
2023-04-16T10:34:49.266Z,100726.22
2023-04-16T10:37:18.601Z,100719.88
2023-04-16T10:39:46.000Z,100708.97
2023-04-16T10:42:13.648Z,100708.38
2023-04-16T10:44:43.637Z,100705.28
2023-04-16T10:47:13.232Z,100709.84
2023-04-16T10:49:41.672Z,100705.75
2023-04-16T10:52:13.176Z,100699.34
2023-04-16T10:54:41.469Z,100692.47
2023-04-16T10:57:12.349Z,100688.72
2023-04-16T10:59:42.113Z,100692.56
2023-04-16T11:02:13.077Z,100698.81
2023-04-16T11:04:42.886Z,100694.19
2023-04-16T11:07:14.160Z,100694.19
2023-04-16T11:09:54.911Z,100699.00
2023-04-16T11:12:23.945Z,100692.28
2023-04-16T11:14:55.024Z,100682.53
2023-04-16T11:17:23.342Z,100689.81
2023-04-16T11:19:50.868Z,100687.28
2023-04-16T11:22:21.264Z,100681.56
2023-04-16T11:24:54.067Z,100679.66
2023-04-16T11:27:22.368Z,100678.28
2023-04-16T11:30:04.288Z,100673.91
2023-04-16T11:32:33.909Z,100669.31
2023-04-16T11:35:05.947Z,100676.25
2023-04-16T11:37:34.855Z,100671.38
2023-04-16T11:40:03.775Z,100672.16
2023-04-16T11:42:31.465Z,100668.84
2023-04-16T11:45:02.651Z,100674.22
2023-04-16T11:47:31.784Z,100670.38
2023-04-16T11:50:15.702Z,100673.25
2023-04-16T11:52:43.472Z,100672.84
2023-04-16T11:55:11.227Z,100664.81
2023-04-16T11:57:38.953Z,100670.47
2023-04-16T12:00:10.665Z,100662.72
2023-04-16T12:02:44.122Z,100662.19
2023-04-16T12:05:31.414Z,100657.09
2023-04-16T12:07:59.429Z,100652.91
2023-04-16T12:10:27.386Z,100667.88
2023-04-16T12:12:54.869Z,100652.84
2023-04-16T12:15:23.187Z,100650.72
2023-04-16T12:17:54.506Z,100656.44
2023-04-16T12:20:22.197Z,100654.16
2023-04-16T12:22:50.002Z,100652.13
2023-04-16T12:25:17.841Z,100631.75
2023-04-16T12:27:53.747Z,100650.72
2023-04-16T12:30:22.927Z,100637.97
2023-04-16T12:32:51.863Z,100631.41
2023-04-16T12:35:32.660Z,100636.22
2023-04-16T12:38:00.546Z,100626.44
2023-04-16T12:40:28.844Z,100639.66
2023-04-16T12:42:56.205Z,100630.88
2023-04-16T12:45:24.262Z,100629.72
2023-04-16T12:47:51.693Z,100628.09
2023-04-16T12:50:19.181Z,100624.56
2023-04-16T12:52:46.572Z,100630.06
2023-04-16T12:55:14.355Z,100623.16
2023-04-16T12:57:41.636Z,100630.81
2023-04-16T13:00:12.770Z,100632.94
2023-04-16T13:02:41.223Z,100635.84
2023-04-16T13:05:09.223Z,100628.25
2023-04-16T13:07:36.779Z,100625.34
2023-04-16T13:10:06.059Z,100620.72
2023-04-16T13:12:33.491Z,100618.00
2023-04-16T13:15:00.935Z,100613.50
2023-04-16T13:17:28.182Z,100608.81
2023-04-16T13:19:55.539Z,100606.59
2023-04-16T13:22:24.509Z,100599.00
2023-04-16T13:24:52.284Z,100599.47
2023-04-16T13:27:20.501Z,100611.38
2023-04-16T13:29:48.245Z,100602.66
2023-04-16T13:32:16.158Z,100606.00
2023-04-16T13:34:43.550Z,100598.97
2023-04-16T13:37:11.287Z,100609.38
2023-04-16T13:39:38.726Z,100613.09
2023-04-16T13:42:06.547Z,100605.91
2023-04-16T13:44:34.016Z,100603.09
2023-04-16T13:47:01.476Z,100605.16
2023-04-16T13:49:31.772Z,100600.91
2023-04-16T13:52:01.021Z,100605.31
2023-04-16T13:54:28.726Z,100602.72
2023-04-16T13:56:56.410Z,100603.66
2023-04-16T13:59:23.875Z,100613.25
2023-04-16T14:01:51.346Z,100622.09
2023-04-16T14:04:18.969Z,100615.16
2023-04-16T14:06:46.406Z,100625.16
2023-04-16T14:09:13.655Z,100616.91
2023-04-16T14:11:41.050Z,100614.00
2023-04-16T14:14:08.908Z,100614.66
2023-04-16T14:16:37.196Z,100625.25
2023-04-16T14:19:04.978Z,100614.22
2023-04-16T14:21:32.948Z,100626.94
2023-04-16T14:24:00.735Z,100625.72
2023-04-16T14:26:29.101Z,100625.31
2023-04-16T14:28:56.494Z,100626.59
2023-04-16T14:31:24.371Z,100626.22
2023-04-16T14:33:51.869Z,100634.28
2023-04-16T14:36:19.327Z,100630.47
2023-04-16T14:38:48.326Z,100627.44
2023-04-16T14:41:15.759Z,100625.88
2023-04-16T14:43:44.415Z,100629.81
2023-04-16T14:46:12.486Z,100636.91
2023-04-16T14:48:40.011Z,100637.41
2023-04-16T14:51:08.560Z,100634.00
2023-04-16T14:53:37.480Z,100631.13
2023-04-16T14:56:05.964Z,100632.66
2023-04-16T14:58:33.505Z,100628.84
2023-04-16T15:01:01.325Z,100635.72
2023-04-16T15:03:31.009Z,100630.16
2023-04-16T15:05:58.641Z,100641.66
2023-04-16T15:08:26.157Z,100638.16
2023-04-16T15:10:54.425Z,100638.94
2023-04-16T15:13:22.217Z,100637.91
2023-04-16T15:15:50.109Z,100640.41
2023-04-16T15:18:17.881Z,100640.69
2023-04-16T15:20:45.631Z,100641.81
2023-04-16T15:23:13.489Z,100642.31
2023-04-16T15:25:40.892Z,100648.00
2023-04-16T15:28:08.968Z,100659.56
2023-04-16T15:30:38.246Z,100651.38
2023-04-16T15:33:05.866Z,100646.59
2023-04-16T15:35:33.788Z,100642.44
2023-04-16T15:38:02.179Z,100651.28
2023-04-16T15:40:30.034Z,100646.94
2023-04-16T15:42:57.828Z,100662.38
2023-04-16T15:45:25.120Z,100657.44
2023-04-16T15:47:53.012Z,100663.50
2023-04-16T15:50:20.897Z,100661.91
2023-04-16T15:52:48.376Z,100665.84
2023-04-16T15:55:17.566Z,100668.06
2023-04-16T15:57:45.113Z,100667.22
2023-04-16T16:00:17.319Z,100663.22
2023-04-16T16:02:46.556Z,100667.91
2023-04-16T16:05:14.498Z,100675.03
2023-04-16T16:07:43.551Z,100676.16
2023-04-16T16:10:12.940Z,100667.50
2023-04-16T16:12:41.106Z,100672.53
2023-04-16T16:15:11.032Z,100677.84
2023-04-16T16:17:38.996Z,100675.88
2023-04-16T16:20:09.647Z,100674.41
2023-04-16T16:22:38.391Z,100677.84
2023-04-16T16:25:06.965Z,100681.22
2023-04-16T16:27:36.232Z,100687.75
2023-04-16T16:30:06.658Z,100693.03
2023-04-16T16:32:34.353Z,100686.59
2023-04-16T16:35:02.429Z,100677.28
2023-04-16T16:37:30.185Z,100681.16
2023-04-16T16:39:57.577Z,100687.25
2023-04-16T16:42:26.705Z,100695.81
2023-04-16T16:44:57.285Z,100700.13
2023-04-16T16:47:25.630Z,100707.50
2023-04-16T16:49:54.791Z,100706.84
2023-04-16T16:52:22.763Z,100700.31
2023-04-16T16:54:50.963Z,100704.50
2023-04-16T16:57:19.351Z,100707.97
2023-04-16T16:59:47.031Z,100719.81
2023-04-16T17:02:16.329Z,100724.00
2023-04-16T17:04:44.516Z,100730.94
2023-04-16T17:07:12.399Z,100729.19
2023-04-16T17:09:40.488Z,100741.25
2023-04-16T17:12:08.319Z,100739.63
2023-04-16T17:14:36.103Z,100749.16
2023-04-16T17:17:04.135Z,100738.97
2023-04-16T17:19:31.938Z,100741.78
2023-04-16T17:21:59.484Z,100752.97
2023-04-16T17:24:27.164Z,100758.88
2023-04-16T17:26:54.603Z,100759.78
2023-04-16T17:29:25.945Z,100766.47
2023-04-16T17:31:54.086Z,100766.13
2023-04-16T17:34:21.771Z,100773.38
2023-04-16T17:36:50.639Z,100778.59
2023-04-16T17:39:18.754Z,100784.16
2023-04-16T17:41:46.190Z,100784.72
2023-04-16T17:44:13.645Z,100785.91
2023-04-16T17:46:42.007Z,100788.53
2023-04-16T17:49:09.460Z,100787.44
2023-04-16T17:51:37.041Z,100791.47
2023-04-16T17:54:04.835Z,100790.16
2023-04-16T17:56:32.575Z,100799.75
2023-04-16T17:58:59.962Z,100799.47
2023-04-16T18:01:27.590Z,100809.22
2023-04-16T18:03:55.131Z,100813.09
2023-04-16T18:06:23.356Z,100816.66
2023-04-16T18:08:50.655Z,100820.78
2023-04-16T18:11:18.602Z,100820.56
2023-04-16T18:13:45.830Z,100825.53
2023-04-16T18:16:19.167Z,100823.78
2023-04-16T18:18:47.554Z,100827.03
2023-04-16T18:21:14.981Z,100831.06
2023-04-16T18:23:42.573Z,100829.63
2023-04-16T18:26:11.061Z,100835.75
2023-04-16T18:28:38.682Z,100832.44
2023-04-16T18:31:07.838Z,100837.59
2023-04-16T18:33:53.386Z,100844.34
2023-04-16T18:36:22.932Z,100845.00
2023-04-16T18:39:01.048Z,100847.69
2023-04-16T18:41:30.959Z,100848.19
2023-04-16T18:43:58.660Z,100846.72
2023-04-16T18:46:27.639Z,100848.91
2023-04-16T18:48:55.794Z,100850.06
2023-04-16T18:51:23.337Z,100852.94
2023-04-16T18:53:51.325Z,100859.66
2023-04-16T18:56:19.037Z,100859.22
2023-04-16T18:58:47.788Z,100862.06
2023-04-16T19:01:16.540Z,100854.78
2023-04-16T19:03:44.458Z,100864.88
2023-04-16T19:06:11.825Z,100864.94
2023-04-16T19:08:39.203Z,100869.44
2023-04-16T19:11:07.576Z,100872.31
2023-04-16T19:13:34.911Z,100874.34
2023-04-16T19:16:02.879Z,100879.13
2023-04-16T19:18:30.382Z,100877.06
2023-04-16T19:21:01.502Z,100879.41
2023-04-16T19:23:30.082Z,100881.47
2023-04-16T19:25:57.841Z,100879.47
2023-04-16T19:28:25.824Z,100892.06
2023-04-16T19:30:53.479Z,100890.19
2023-04-16T19:33:21.185Z,100891.41
2023-04-16T19:35:48.949Z,100892.59
2023-04-16T19:38:16.729Z,100893.84
2023-04-16T19:40:46.135Z,100889.06
2023-04-16T19:43:14.590Z,100892.91
2023-04-16T19:45:43.177Z,100895.25
2023-04-16T19:48:11.335Z,100897.56
2023-04-16T19:50:39.727Z,100900.22
2023-04-16T19:53:07.451Z,100897.13
2023-04-16T19:55:35.184Z,100898.53
2023-04-16T19:58:11.661Z,100895.66
2023-04-16T20:00:40.958Z,100890.03
2023-04-16T20:03:08.725Z,100894.84
2023-04-16T20:05:36.550Z,100892.34
2023-04-16T20:08:04.367Z,100899.84
2023-04-16T20:10:32.055Z,100896.41
2023-04-16T20:12:59.567Z,100897.34
2023-04-16T20:15:27.297Z,100898.66
2023-04-16T20:17:56.306Z,100899.03
2023-04-16T20:20:23.809Z,100901.41
2023-04-16T20:22:51.661Z,100897.47
2023-04-16T20:25:19.584Z,100910.66
2023-04-16T20:27:47.435Z,100897.47
2023-04-16T20:30:15.642Z,100902.63
2023-04-16T20:32:43.493Z,100903.69
2023-04-16T20:35:11.678Z,100898.41
2023-04-16T20:37:39.881Z,100895.56
2023-04-16T20:40:08.943Z,100898.03
2023-04-16T20:42:36.469Z,100900.34
2023-04-16T20:45:03.840Z,100901.78
2023-04-16T20:47:31.205Z,100901.28
2023-04-16T20:50:01.758Z,100909.31
2023-04-16T20:52:29.572Z,100899.63
2023-04-16T20:54:57.920Z,100901.78
2023-04-16T20:57:26.111Z,100897.00
2023-04-16T20:59:53.359Z,100895.03
2023-04-16T21:02:21.088Z,100894.66
2023-04-16T21:04:49.022Z,100901.75
2023-04-16T21:07:16.690Z,100896.84
2023-04-16T21:09:44.371Z,100893.59
2023-04-16T21:12:12.195Z,100900.41
2023-04-16T21:14:39.504Z,100897.91
2023-04-16T21:17:06.791Z,100893.34
2023-04-16T21:19:34.537Z,100899.22
2023-04-16T21:22:02.912Z,100897.97
2023-04-16T21:24:31.806Z,100898.78
2023-04-16T21:26:59.890Z,100894.78
2023-04-16T21:29:27.368Z,100898.28
2023-04-16T21:31:55.393Z,100891.31
2023-04-16T21:34:23.266Z,100896.03
2023-04-16T21:36:50.751Z,100900.00
2023-04-16T21:39:19.851Z,100902.47
2023-04-16T21:41:47.694Z,100901.84
2023-04-16T21:44:17.676Z,100903.19
2023-04-16T21:46:45.011Z,100899.66
2023-04-16T21:49:12.448Z,100902.31
2023-04-16T21:51:43.020Z,100896.56
2023-04-16T21:54:10.362Z,100893.06
2023-04-16T21:56:38.069Z,100891.81
2023-04-16T21:59:05.405Z,100892.00
2023-04-16T22:01:32.785Z,100896.53
2023-04-16T22:04:02.137Z,100892.47
2023-04-16T22:06:29.453Z,100892.13
2023-04-16T22:08:58.918Z,100883.47
2023-04-16T22:11:26.190Z,100884.41
2023-04-16T22:13:57.777Z,100883.53
2023-04-16T22:16:25.934Z,100888.75
2023-04-16T22:18:54.984Z,100881.66
2023-04-16T22:21:22.419Z,100888.41
2023-04-16T22:23:50.408Z,100885.28
2023-04-16T22:26:17.814Z,100882.09
2023-04-16T22:28:45.082Z,100880.66
2023-04-16T22:31:12.820Z,100887.47
2023-04-16T22:33:40.530Z,100885.59
2023-04-16T22:36:08.628Z,100888.88
2023-04-16T22:38:38.903Z,100889.13
2023-04-16T22:41:06.324Z,100892.69
2023-04-16T22:43:37.102Z,100889.03
2023-04-16T22:46:06.580Z,100886.91
2023-04-16T22:48:36.242Z,100888.78
2023-04-16T22:51:04.568Z,100886.81
2023-04-16T22:53:31.841Z,100884.75
2023-04-16T22:56:00.057Z,100877.19
2023-04-16T22:58:27.394Z,100883.50
2023-04-16T23:00:57.543Z,100880.81
2023-04-16T23:03:25.688Z,100871.13
2023-04-16T23:05:52.988Z,100884.63
2023-04-16T23:08:20.338Z,100878.94
2023-04-16T23:10:47.662Z,100872.59
2023-04-16T23:13:15.747Z,100862.19
2023-04-16T23:15:43.817Z,100869.97
2023-04-16T23:18:11.880Z,100863.56
2023-04-16T23:20:39.292Z,100863.56
2023-04-16T23:23:06.632Z,100865.13
2023-04-16T23:25:34.032Z,100876.47
2023-04-16T23:28:01.672Z,100870.47
2023-04-16T23:30:29.067Z,100870.22
2023-04-16T23:32:56.925Z,100872.41
2023-04-16T23:35:24.246Z,100877.03
2023-04-16T23:37:51.739Z,100870.63
2023-04-16T23:40:19.066Z,100869.78
2023-04-16T23:42:47.149Z,100856.19
2023-04-16T23:45:14.920Z,100860.09
2023-04-16T23:47:42.410Z,100859.78
2023-04-16T23:50:09.881Z,100860.22
2023-04-16T23:52:37.455Z,100854.75
2023-04-16T23:55:05.357Z,100859.63
2023-04-16T23:57:32.698Z,100854.03
